createdAt,value
2018-08-09T00:01:14.900Z,2.10
2018-08-09T00:06:18.967Z,1.97
2018-08-09T00:11:23.056Z,1.80
2018-08-09T00:16:29.672Z,2.20
2018-08-09T00:22:08.698Z,2.33
2018-08-09T00:27:12.823Z,3.03
2018-08-09T00:32:17.639Z,2.10
2018-08-09T00:37:21.756Z,1.90
2018-08-09T00:42:25.945Z,2.10
2018-08-09T00:47:30.085Z,1.90
2018-08-09T00:52:34.231Z,2.10
2018-08-09T00:57:38.324Z,2.10
2018-08-09T01:02:42.481Z,2.50
2018-08-09T01:07:47.330Z,2.13
2018-08-09T01:12:51.446Z,1.93
2018-08-09T01:17:55.513Z,2.00
2018-08-09T01:22:59.658Z,2.13
2018-08-09T01:28:05.019Z,2.90
2018-08-09T01:33:09.124Z,2.37
2018-08-09T01:38:13.358Z,2.00
2018-08-09T01:43:28.829Z,2.03
2018-08-09T01:48:32.946Z,2.27
2018-08-09T01:53:38.021Z,2.40
2018-08-09T01:58:42.165Z,2.63
2018-08-09T02:03:46.365Z,2.40
2018-08-09T02:08:50.458Z,2.33
2018-08-09T02:13:54.531Z,2.33
2018-08-09T02:18:58.682Z,2.50
2018-08-09T02:24:02.833Z,2.40
2018-08-09T02:29:07.000Z,3.33
2018-08-09T02:34:11.109Z,3.53
2018-08-09T02:39:15.644Z,3.33
2018-08-09T02:44:20.663Z,3.57
2018-08-09T02:49:25.577Z,5.00
2018-08-09T02:54:29.836Z,4.10
2018-08-09T02:59:33.970Z,3.97
2018-08-09T03:04:38.249Z,4.90
2018-08-09T03:09:42.325Z,5.17
2018-08-09T03:14:46.488Z,3.00
2018-08-09T03:19:50.664Z,3.70
2018-08-09T03:24:54.748Z,3.60
2018-08-09T03:29:58.876Z,3.20
2018-08-09T03:35:03.099Z,3.77
2018-08-09T03:40:07.282Z,3.73
2018-08-09T03:45:11.430Z,3.57
2018-08-09T03:50:15.549Z,4.23
2018-08-09T03:55:20.091Z,4.50
2018-08-09T04:00:24.208Z,3.60
2018-08-09T04:05:29.225Z,3.30
2018-08-09T04:10:34.299Z,2.70
2018-08-09T04:15:38.382Z,4.07
2018-08-09T04:20:42.531Z,3.53
2018-08-09T04:25:46.698Z,3.83
2018-08-09T04:30:50.791Z,2.87
2018-08-09T04:35:54.925Z,4.67
2018-08-09T04:40:59.024Z,3.30
2018-08-09T04:46:03.171Z,5.50
2018-08-09T04:51:07.245Z,3.50
2018-08-09T04:56:11.281Z,4.90
2018-08-09T05:01:15.417Z,3.57
2018-08-09T05:06:19.473Z,4.77
2018-08-09T05:11:23.576Z,4.07
2018-08-09T05:16:27.623Z,4.77
2018-08-09T05:21:31.729Z,4.33
2018-08-09T05:26:35.849Z,5.00
2018-08-09T05:31:40.735Z,5.47
2018-08-09T05:36:45.566Z,4.00
2018-08-09T05:41:49.629Z,5.23
2018-08-09T05:46:53.724Z,4.67
2018-08-09T05:51:58.027Z,5.23
2018-08-09T05:57:02.105Z,4.20
2018-08-09T06:02:06.160Z,6.17
2018-08-09T06:07:10.535Z,3.10
2018-08-09T06:12:14.617Z,5.47
2018-08-09T06:17:24.067Z,3.93
2018-08-09T06:22:30.801Z,5.17
2018-08-09T06:27:35.866Z,5.03
2018-08-09T06:32:40.498Z,5.50
2018-08-09T06:37:44.605Z,4.30
2018-08-09T06:42:48.696Z,5.57
2018-08-09T06:47:52.776Z,4.97
2018-08-09T06:52:56.887Z,5.20
2018-08-09T06:58:28.499Z,5.70
2018-08-09T07:03:32.538Z,3.13
2018-08-09T07:08:36.851Z,4.97
2018-08-09T07:13:40.896Z,4.23
2018-08-09T07:18:45.049Z,3.63
2018-08-09T07:23:49.212Z,3.20
2018-08-09T07:28:53.432Z,3.23
2018-08-09T07:33:57.559Z,2.50
2018-08-09T07:39:01.692Z,3.30
2018-08-09T07:44:05.777Z,3.40
2018-08-09T07:49:09.901Z,3.97
2018-08-09T07:54:14.005Z,3.57
2018-08-09T07:59:18.136Z,2.80
2018-08-09T08:04:22.296Z,3.50
2018-08-09T08:09:26.461Z,4.17
2018-08-09T08:14:30.659Z,4.00
2018-08-09T08:19:35.575Z,5.37
2018-08-09T08:24:39.762Z,4.80
2018-08-09T08:29:43.832Z,4.37
2018-08-09T08:34:48.710Z,3.70
2018-08-09T08:39:52.849Z,3.63
2018-08-09T08:44:57.733Z,5.17
2018-08-09T08:50:01.894Z,5.80
2018-08-09T08:55:07.919Z,5.33
2018-08-09T09:00:12.790Z,3.87
2018-08-09T09:05:16.897Z,4.83
2018-08-09T09:10:20.965Z,4.37
2018-08-09T09:15:25.496Z,5.70
2018-08-09T09:20:31.839Z,5.73
2018-08-09T09:25:35.921Z,4.70
2018-08-09T09:30:40.002Z,5.57
2018-08-09T09:35:44.088Z,4.90
2018-08-09T09:40:48.182Z,5.50
2018-08-09T09:45:52.396Z,5.97
2018-08-09T09:50:56.673Z,4.80
2018-08-09T09:56:00.794Z,4.30
2018-08-09T10:01:10.319Z,5.67
2018-08-09T10:06:14.846Z,5.77
2018-08-09T10:11:18.927Z,7.93
2018-08-09T10:16:23.069Z,7.67
2018-08-09T10:21:27.202Z,4.93
2018-08-09T10:26:31.379Z,6.53
2018-08-09T10:31:35.570Z,5.43
2018-08-09T10:36:39.685Z,4.63
2018-08-09T10:41:43.801Z,5.60
2018-08-09T10:46:47.954Z,7.50
2018-08-09T10:51:52.068Z,7.17
2018-08-09T10:56:59.545Z,5.53
2018-08-09T11:02:11.901Z,5.43
2018-08-09T11:07:16.307Z,4.80
2018-08-09T11:12:20.453Z,5.77
2018-08-09T11:17:26.067Z,6.37
2018-08-09T11:22:30.857Z,7.30
2018-08-09T11:27:35.260Z,5.93
2018-08-09T11:32:48.673Z,5.50
2018-08-09T11:37:52.751Z,5.20
2018-08-09T11:42:56.923Z,5.37
2018-08-09T11:48:01.213Z,4.87
2018-08-09T11:53:06.189Z,7.43
2018-08-09T11:58:10.601Z,6.33
2018-08-09T12:03:14.763Z,7.17
2018-08-09T12:08:18.873Z,5.53
2018-08-09T12:13:23.037Z,6.33
2018-08-09T12:18:27.149Z,7.10
2018-08-09T12:23:31.296Z,6.27
2018-08-09T12:28:35.531Z,6.63
2018-08-09T12:33:39.725Z,6.43
2018-08-09T12:38:43.848Z,6.40
2018-08-09T12:43:48.018Z,6.57
2018-08-09T12:48:52.281Z,6.50
2018-08-09T12:53:56.438Z,6.73
2018-08-09T12:59:00.612Z,6.73
2018-08-09T13:04:05.665Z,5.60
2018-08-09T13:09:10.975Z,6.70
2018-08-09T13:14:15.122Z,6.60
2018-08-09T13:19:19.236Z,6.30
2018-08-09T13:24:23.913Z,6.47
2018-08-09T13:29:29.001Z,7.30
2018-08-09T13:34:33.069Z,7.90
2018-08-09T13:39:37.235Z,9.00
2018-08-09T13:44:41.386Z,8.20
2018-08-09T13:49:51.349Z,6.20
2018-08-09T13:54:55.347Z,5.57
2018-08-09T13:59:59.490Z,5.90
2018-08-09T14:05:04.238Z,5.00
2018-08-09T14:10:09.605Z,4.70
2018-08-09T14:15:14.737Z,3.47
2018-08-09T14:20:18.857Z,3.50
2018-08-09T14:25:23.720Z,3.80
2018-08-09T14:30:28.692Z,3.13
2018-08-09T14:35:34.408Z,3.40
2018-08-09T14:40:38.591Z,3.53
2018-08-09T14:45:43.422Z,3.07
2018-08-09T14:50:47.659Z,2.50
2018-08-09T14:55:52.942Z,2.80
2018-08-09T15:00:57.737Z,3.40
2018-08-09T15:06:06.827Z,3.30
2018-08-09T15:11:10.942Z,3.77
2018-08-09T15:16:15.043Z,4.53
2018-08-09T15:21:19.112Z,4.67
2018-08-09T15:26:23.185Z,5.17
2018-08-09T15:31:27.299Z,5.90
2018-08-09T15:37:19.608Z,4.80
2018-08-09T15:42:24.302Z,6.40
2018-08-09T15:47:34.498Z,5.17
2018-08-09T15:52:39.373Z,5.30
2018-08-09T15:57:43.513Z,5.17
2018-08-09T16:02:47.746Z,4.67
2018-08-09T16:07:51.805Z,4.37
2018-08-09T16:12:56.009Z,4.40
2018-08-09T16:18:00.187Z,3.20
2018-08-09T16:23:04.488Z,3.63
2018-08-09T16:28:08.725Z,3.60
2018-08-09T16:33:12.826Z,3.30
2018-08-09T16:38:16.952Z,3.27
2018-08-09T16:43:21.062Z,2.50
2018-08-09T16:48:25.476Z,2.70
2018-08-09T16:53:29.578Z,2.77
2018-08-09T16:58:33.789Z,2.70
2018-08-09T17:03:37.907Z,2.63
2018-08-09T17:08:43.010Z,2.60
2018-08-09T17:13:47.152Z,2.47
2018-08-09T17:18:51.219Z,2.60
2018-08-09T17:23:55.351Z,2.87
2018-08-09T17:28:59.624Z,2.97
2018-08-09T17:34:03.774Z,3.10
2018-08-09T17:39:10.302Z,2.60
2018-08-09T17:44:14.387Z,3.27
2018-08-09T17:49:18.583Z,3.43
2018-08-09T17:54:22.740Z,3.17
2018-08-09T17:59:27.050Z,3.30
2018-08-09T18:04:31.762Z,2.90
2018-08-09T18:09:36.064Z,3.20
2018-08-09T18:14:40.361Z,2.63
2018-08-09T18:19:45.652Z,3.17
2018-08-09T18:24:49.981Z,2.67
2018-08-09T18:29:54.380Z,2.47
2018-08-09T18:34:58.791Z,2.80
2018-08-09T18:40:03.229Z,2.80
2018-08-09T18:45:08.196Z,2.80
2018-08-09T18:50:15.754Z,3.70
2018-08-09T18:55:20.248Z,3.67
2018-08-09T19:00:26.049Z,3.63
2018-08-09T19:05:30.230Z,2.60
2018-08-09T19:10:34.571Z,3.20
2018-08-09T19:15:38.668Z,3.63
2018-08-09T19:20:42.801Z,2.40
2018-08-09T19:25:47.036Z,2.33
2018-08-09T19:30:51.192Z,2.13
2018-08-09T19:35:55.645Z,1.87
2018-08-09T19:40:59.930Z,2.00
2018-08-09T19:46:04.025Z,1.60
2018-08-09T19:51:08.316Z,2.20
2018-08-09T19:56:12.692Z,2.00
2018-08-09T20:01:17.082Z,1.90
2018-08-09T20:06:22.041Z,2.70
2018-08-09T20:11:26.189Z,2.20
2018-08-09T20:16:30.714Z,2.43
2018-08-09T20:21:35.009Z,2.27
2018-08-09T20:26:39.203Z,2.40
2018-08-09T20:31:43.442Z,2.00
2018-08-09T20:36:47.654Z,2.87
2018-08-09T20:41:51.903Z,2.80
2018-08-09T20:46:56.060Z,1.80
2018-08-09T20:52:00.316Z,2.07
2018-08-09T20:57:04.481Z,1.63
2018-08-09T21:02:08.785Z,1.70
2018-08-09T21:07:13.866Z,2.20
2018-08-09T21:12:19.389Z,1.57
2018-08-09T21:17:23.521Z,1.50
2018-08-09T21:22:27.657Z,1.60
2018-08-09T21:27:32.723Z,1.30
2018-08-09T21:32:37.022Z,1.03
2018-08-09T21:37:41.985Z,1.20
2018-08-09T21:42:46.119Z,1.10
2018-08-09T21:47:50.398Z,1.20
2018-08-09T21:52:54.524Z,1.30
2018-08-09T21:57:58.686Z,1.20
2018-08-09T22:03:02.897Z,1.23
2018-08-09T22:08:12.427Z,1.10
2018-08-09T22:13:21.959Z,1.13
2018-08-09T22:18:32.467Z,1.10
2018-08-09T22:23:36.665Z,1.13
2018-08-09T22:28:41.215Z,1.00
2018-08-09T22:33:45.681Z,0.90
2018-08-09T22:38:49.909Z,0.77
2018-08-09T22:43:54.173Z,1.00
2018-08-09T22:48:58.452Z,0.70
2018-08-09T22:54:02.684Z,0.80
2018-08-09T22:59:10.453Z,0.57
2018-08-09T23:04:15.023Z,0.77
2018-08-09T23:09:19.304Z,0.70
2018-08-09T23:14:23.493Z,3.03
2018-08-09T23:19:27.760Z,3.37
2018-08-09T23:24:32.220Z,1.00
2018-08-09T23:29:36.411Z,1.40
2018-08-09T23:34:43.753Z,0.97
2018-08-09T23:39:48.005Z,0.90
2018-08-09T23:44:52.218Z,0.70
2018-08-09T23:50:30.951Z,1.10
2018-08-09T23:55:35.222Z,0.83
